Terminal Aerodrome Forecast
Issued by NWS Norman, OK

Home | Current Version | Previous Version | Text Only | Print | Product List | Glossary On
Versions: 1 2 3 4 5 6 7 8 9 10 11 12
000
FTUS44 KOUN 242321
TAFSPS
TAF
KSPS 242321Z 2500/2524 13011KT P6SM BKN150
     FM251500 16013G20KT P6SM BKN050 BKN100 PROB30 2520/2524 4SM
      -SHRA=

USA.gov is the U.S. government's official web portal to all federal, state and local government web resources and services.